sensor_id;sensor_type;location;lat;lon;timestamp;pressure;altitude;pressure_sealevel;temperature;humidity
27294;BME280;14785;52.556;13.430;2023-06-22T00:00:59;101100.19;;;24.72;100.00
27294;BME280;14785;52.556;13.430;2023-06-22T00:03:25;101106.22;;;24.74;100.00
27294;BME280;14785;52.556;13.430;2023-06-22T00:05:51;101110.81;;;24.62;100.00
27294;BME280;14785;52.556;13.430;2023-06-22T00:08:16;101106.69;;;24.83;100.00
27294;BME280;14785;52.556;13.430;2023-06-22T00:10:45;101108.31;;;24.95;100.00
27294;BME280;14785;52.556;13.430;2023-06-22T00:13:11;101101.34;;;24.99;100.00
27294;BME280;14785;52.556;13.430;2023-06-22T00:15:38;101106.59;;;24.66;100.00
27294;BME280;14785;52.556;13.430;2023-06-22T00:18:04;101108.66;;;24.64;100.00
27294;BME280;14785;52.556;13.430;2023-06-22T00:20:29;101116.84;;;24.53;100.00
27294;BME280;14785;52.556;13.430;2023-06-22T00:22:58;101121.56;;;24.57;100.00
27294;BME280;14785;52.556;13.430;2023-06-22T00:25:25;101124.53;;;24.44;100.00
27294;BME280;14785;52.556;13.430;2023-06-22T00:27:50;101130.41;;;24.29;100.00
27294;BME280;14785;52.556;13.430;2023-06-22T00:30:16;101137.28;;;24.32;100.00
27294;BME280;14785;52.556;13.430;2023-06-22T00:32:42;101135.53;;;24.38;100.00
27294;BME280;14785;52.556;13.430;2023-06-22T00:35:07;101131.16;;;24.60;100.00
27294;BME280;14785;52.556;13.430;2023-06-22T00:37:33;101127.34;;;24.49;100.00
27294;BME280;14785;52.556;13.430;2023-06-22T00:40:00;101126.19;;;24.45;100.00
27294;BME280;14785;52.556;13.430;2023-06-22T00:42:25;101129.84;;;24.39;100.00
27294;BME280;14785;52.556;13.430;2023-06-22T00:44:51;101131.28;;;24.53;100.00
27294;BME280;14785;52.556;13.430;2023-06-22T00:47:17;101136.69;;;24.30;100.00
27294;BME280;14785;52.556;13.430;2023-06-22T00:49:42;101134.69;;;24.37;100.00
27294;BME280;14785;52.556;13.430;2023-06-22T00:52:08;101137.84;;;24.22;100.00
27294;BME280;14785;52.556;13.430;2023-06-22T00:54:37;101135.50;;;24.26;100.00
27294;BME280;14785;52.556;13.430;2023-06-22T00:57:02;101133.34;;;24.16;100.00
27294;BME280;14785;52.556;13.430;2023-06-22T00:59:28;101129.22;;;24.14;100.00
27294;BME280;14785;52.556;13.430;2023-06-22T01:01:53;101127.53;;;24.13;100.00
27294;BME280;14785;52.556;13.430;2023-06-22T01:04:19;101135.59;;;24.08;100.00
27294;BME280;14785;52.556;13.430;2023-06-22T01:06:45;101140.44;;;24.17;100.00
27294;BME280;14785;52.556;13.430;2023-06-22T01:09:22;101134.84;;;24.01;100.00
27294;BME280;14785;52.556;13.430;2023-06-22T01:11:56;101140.38;;;23.94;100.00
27294;BME280;14785;52.556;13.430;2023-06-22T01:14:34;101142.44;;;23.99;100.00
27294;BME280;14785;52.556;13.430;2023-06-22T01:17:02;101136.97;;;23.99;100.00
27294;BME280;14785;52.556;13.430;2023-06-22T01:19:45;101147.47;;;23.95;100.00
27294;BME280;14785;52.556;13.430;2023-06-22T01:22:20;101145.72;;;24.01;100.00
27294;BME280;14785;52.556;13.430;2023-06-22T01:29:58;101137.13;;;23.86;100.00
27294;BME280;14785;52.556;13.430;2023-06-22T01:32:26;101144.59;;;23.90;100.00
27294;BME280;14785;52.556;13.430;2023-06-22T01:34:52;101141.72;;;24.03;100.00
27294;BME280;14785;52.556;13.430;2023-06-22T01:37:17;101147.41;;;24.02;100.00
27294;BME280;14785;52.556;13.430;2023-06-22T01:39:43;101145.94;;;23.99;100.00
27294;BME280;14785;52.556;13.430;2023-06-22T01:42:08;101155.66;;;24.07;100.00
27294;BME280;14785;52.556;13.430;2023-06-22T01:44:35;101156.91;;;23.93;100.00
27294;BME280;14785;52.556;13.430;2023-06-22T01:47:01;101160.41;;;23.82;100.00
27294;BME280;14785;52.556;13.430;2023-06-22T01:49:27;101160.97;;;24.02;100.00
27294;BME280;14785;52.556;13.430;2023-06-22T01:51:52;101157.06;;;23.98;100.00
27294;BME280;14785;52.556;13.430;2023-06-22T01:54:19;101159.53;;;23.70;100.00
27294;BME280;14785;52.556;13.430;2023-06-22T01:56:45;101159.78;;;23.80;100.00
27294;BME280;14785;52.556;13.430;2023-06-22T02:01:42;101161.91;;;23.12;100.00
27294;BME280;14785;52.556;13.430;2023-06-22T02:04:13;101158.97;;;23.50;100.00
27294;BME280;14785;52.556;13.430;2023-06-22T02:06:39;101155.00;;;23.64;100.00
27294;BME280;14785;52.556;13.430;2023-06-22T02:09:11;101154.53;;;23.67;100.00
27294;BME280;14785;52.556;13.430;2023-06-22T02:11:37;101171.19;;;23.41;100.00
27294;BME280;14785;52.556;13.430;2023-06-22T02:14:04;101169.75;;;23.38;100.00
27294;BME280;14785;52.556;13.430;2023-06-22T02:16:30;101162.16;;;23.47;100.00
27294;BME280;14785;52.556;13.430;2023-06-22T02:18:57;101165.31;;;23.44;100.00
27294;BME280;14785;52.556;13.430;2023-06-22T02:21:26;101165.91;;;23.46;100.00
27294;BME280;14785;52.556;13.430;2023-06-22T02:23:52;101165.13;;;23.57;100.00
27294;BME280;14785;52.556;13.430;2023-06-22T02:26:17;101169.53;;;23.40;100.00
27294;BME280;14785;52.556;13.430;2023-06-22T02:28:43;101172.22;;;23.58;100.00
27294;BME280;14785;52.556;13.430;2023-06-22T02:31:08;101172.22;;;23.58;100.00
27294;BME280;14785;52.556;13.430;2023-06-22T02:33:33;101171.03;;;23.54;100.00
27294;BME280;14785;52.556;13.430;2023-06-22T02:35:59;101175.34;;;23.73;100.00
27294;BME280;14785;52.556;13.430;2023-06-22T02:38:24;101179.03;;;23.78;100.00
27294;BME280;14785;52.556;13.430;2023-06-22T02:40:50;101177.06;;;23.85;100.00
27294;BME280;14785;52.556;13.430;2023-06-22T02:43:15;101177.78;;;23.81;100.00
27294;BME280;14785;52.556;13.430;2023-06-22T02:45:41;101174.94;;;23.87;100.00
27294;BME280;14785;52.556;13.430;2023-06-22T02:48:06;101178.34;;;23.83;100.00
27294;BME280;14785;52.556;13.430;2023-06-22T02:50:31;101181.69;;;23.85;100.00
27294;BME280;14785;52.556;13.430;2023-06-22T02:52:57;101184.38;;;23.85;100.00
27294;BME280;14785;52.556;13.430;2023-06-22T02:55:23;101180.38;;;23.87;100.00
27294;BME280;14785;52.556;13.430;2023-06-22T02:57:48;101182.75;;;23.84;100.00
27294;BME280;14785;52.556;13.430;2023-06-22T03:00:17;101176.84;;;23.87;100.00
27294;BME280;14785;52.556;13.430;2023-06-22T03:02:46;101181.06;;;23.83;100.00
27294;BME280;14785;52.556;13.430;2023-06-22T03:05:12;101175.84;;;23.81;100.00
27294;BME280;14785;52.556;13.430;2023-06-22T03:07:43;101166.97;;;23.74;100.00
27294;BME280;14785;52.556;13.430;2023-06-22T03:10:09;101176.91;;;23.51;100.00
27294;BME280;14785;52.556;13.430;2023-06-22T03:12:34;101171.56;;;23.74;100.00
27294;BME280;14785;52.556;13.430;2023-06-22T03:15:00;101181.97;;;23.77;100.00
27294;BME280;14785;52.556;13.430;2023-06-22T03:17:25;101177.78;;;23.81;100.00
27294;BME280;14785;52.556;13.430;2023-06-22T03:19:50;101176.09;;;23.80;100.00
27294;BME280;14785;52.556;13.430;2023-06-22T03:22:16;101166.28;;;23.79;100.00
27294;BME280;14785;52.556;13.430;2023-06-22T03:24:41;101171.41;;;23.57;100.00
27294;BME280;14785;52.556;13.430;2023-06-22T03:27:06;101180.53;;;23.63;100.00
27294;BME280;14785;52.556;13.430;2023-06-22T03:29:31;101176.22;;;23.55;100.00
27294;BME280;14785;52.556;13.430;2023-06-22T03:31:57;101169.00;;;23.49;100.00
27294;BME280;14785;52.556;13.430;2023-06-22T03:34:22;101175.72;;;23.47;100.00
27294;BME280;14785;52.556;13.430;2023-06-22T03:36:47;101171.47;;;23.51;100.00
27294;BME280;14785;52.556;13.430;2023-06-22T03:39:13;101171.88;;;23.54;100.00
27294;BME280;14785;52.556;13.430;2023-06-22T03:41:38;101187.34;;;23.36;100.00
27294;BME280;14785;52.556;13.430;2023-06-22T03:44:04;101189.59;;;23.39;100.00
27294;BME280;14785;52.556;13.430;2023-06-22T03:46:29;101194.22;;;22.96;100.00
27294;BME280;14785;52.556;13.430;2023-06-22T03:48:54;101187.91;;;23.02;100.00
27294;BME280;14785;52.556;13.430;2023-06-22T03:51:19;101182.13;;;22.92;100.00
27294;BME280;14785;52.556;13.430;2023-06-22T03:53:45;101185.22;;;22.77;100.00
27294;BME280;14785;52.556;13.430;2023-06-22T03:56:10;101176.25;;;22.95;100.00
27294;BME280;14785;52.556;13.430;2023-06-22T03:58:35;101189.69;;;22.90;100.00
27294;BME280;14785;52.556;13.430;2023-06-22T04:01:01;101180.09;;;22.87;100.00
27294;BME280;14785;52.556;13.430;2023-06-22T04:03:27;101177.69;;;22.79;100.00
27294;BME280;14785;52.556;13.430;2023-06-22T04:05:52;101187.28;;;22.57;100.00
27294;BME280;14785;52.556;13.430;2023-06-22T04:08:17;101186.59;;;22.62;100.00
27294;BME280;14785;52.556;13.430;2023-06-22T04:10:42;101195.34;;;22.64;100.00
27294;BME280;14785;52.556;13.430;2023-06-22T04:13:08;101196.00;;;22.84;100.00
27294;BME280;14785;52.556;13.430;2023-06-22T04:15:33;101190.47;;;23.15;100.00
27294;BME280;14785;52.556;13.430;2023-06-22T04:17:58;101187.72;;;23.39;100.00
27294;BME280;14785;52.556;13.430;2023-06-22T04:20:24;101178.72;;;23.57;100.00
27294;BME280;14785;52.556;13.430;2023-06-22T04:22:54;101176.72;;;23.64;100.00
27294;BME280;14785;52.556;13.430;2023-06-22T04:25:20;101184.13;;;23.75;100.00
27294;BME280;14785;52.556;13.430;2023-06-22T04:27:45;101190.88;;;24.02;100.00
27294;BME280;14785;52.556;13.430;2023-06-22T04:30:11;101190.41;;;24.05;100.00
27294;BME280;14785;52.556;13.430;2023-06-22T04:32:37;101188.25;;;23.77;100.00
27294;BME280;14785;52.556;13.430;2023-06-22T04:35:03;101194.53;;;23.78;100.00
27294;BME280;14785;52.556;13.430;2023-06-22T04:37:29;101205.66;;;23.40;100.00
27294;BME280;14785;52.556;13.430;2023-06-22T04:39:55;101203.44;;;23.67;100.00
27294;BME280;14785;52.556;13.430;2023-06-22T04:42:20;101202.31;;;23.56;100.00
27294;BME280;14785;52.556;13.430;2023-06-22T04:44:45;101200.75;;;23.31;100.00
27294;BME280;14785;52.556;13.430;2023-06-22T04:47:11;101212.34;;;23.20;100.00
27294;BME280;14785;52.556;13.430;2023-06-22T04:49:36;101213.56;;;23.42;100.00
27294;BME280;14785;52.556;13.430;2023-06-22T04:52:03;101204.53;;;23.48;100.00
27294;BME280;14785;52.556;13.430;2023-06-22T04:54:28;101205.22;;;23.25;100.00
27294;BME280;14785;52.556;13.430;2023-06-22T04:56:53;101212.22;;;23.33;100.00
27294;BME280;14785;52.556;13.430;2023-06-22T04:59:24;101215.16;;;23.67;100.00
27294;BME280;14785;52.556;13.430;2023-06-22T05:01:56;101205.47;;;23.71;100.00
27294;BME280;14785;52.556;13.430;2023-06-22T05:04:24;101211.75;;;23.54;100.00
27294;BME280;14785;52.556;13.430;2023-06-22T05:06:50;101200.97;;;23.65;100.00
27294;BME280;14785;52.556;13.430;2023-06-22T05:09:15;101203.63;;;23.54;100.00
27294;BME280;14785;52.556;13.430;2023-06-22T05:11:42;101200.91;;;24.01;100.00
27294;BME280;14785;52.556;13.430;2023-06-22T05:14:07;101198.69;;;24.10;100.00
27294;BME280;14785;52.556;13.430;2023-06-22T05:16:32;101198.81;;;24.03;100.00
27294;BME280;14785;52.556;13.430;2023-06-22T05:18:58;101199.75;;;24.50;100.00
27294;BME280;14785;52.556;13.430;2023-06-22T05:21:25;101196.72;;;25.04;100.00
27294;BME280;14785;52.556;13.430;2023-06-22T05:23:51;101199.66;;;25.37;100.00
27294;BME280;14785;52.556;13.430;2023-06-22T05:26:17;101204.78;;;24.99;100.00
27294;BME280;14785;52.556;13.430;2023-06-22T05:28:42;101208.56;;;24.75;100.00
27294;BME280;14785;52.556;13.430;2023-06-22T05:31:10;101211.75;;;24.72;100.00
27294;BME280;14785;52.556;13.430;2023-06-22T05:33:36;101210.22;;;24.65;100.00
27294;BME280;14785;52.556;13.430;2023-06-22T05:36:01;101213.41;;;24.73;100.00
27294;BME280;14785;52.556;13.430;2023-06-22T05:38:26;101203.81;;;24.82;100.00
27294;BME280;14785;52.556;13.430;2023-06-22T05:40:52;101205.38;;;24.78;100.00
27294;BME280;14785;52.556;13.430;2023-06-22T05:43:17;101199.91;;;25.01;100.00
27294;BME280;14785;52.556;13.430;2023-06-22T05:45:44;101214.25;;;25.08;100.00
27294;BME280;14785;52.556;13.430;2023-06-22T05:48:09;101214.00;;;24.98;100.00
27294;BME280;14785;52.556;13.430;2023-06-22T05:50:34;101211.16;;;24.93;100.00
27294;BME280;14785;52.556;13.430;2023-06-22T05:52:59;101213.06;;;24.81;100.00
27294;BME280;14785;52.556;13.430;2023-06-22T05:55:25;101221.69;;;25.01;100.00
27294;BME280;14785;52.556;13.430;2023-06-22T05:57:50;101229.75;;;25.08;100.00
27294;BME280;14785;52.556;13.430;2023-06-22T06:00:15;101237.31;;;25.52;100.00
27294;BME280;14785;52.556;13.430;2023-06-22T06:02:41;101236.69;;;25.89;100.00
27294;BME280;14785;52.556;13.430;2023-06-22T06:05:10;101235.66;;;25.90;100.00
27294;BME280;14785;52.556;13.430;2023-06-22T06:07:35;101239.88;;;26.09;100.00
27294;BME280;14785;52.556;13.430;2023-06-22T06:10:00;101238.56;;;25.72;100.00
27294;BME280;14785;52.556;13.430;2023-06-22T06:12:27;101239.25;;;25.79;100.00
27294;BME280;14785;52.556;13.430;2023-06-22T06:14:52;101232.63;;;25.75;100.00
27294;BME280;14785;52.556;13.430;2023-06-22T06:17:19;101228.91;;;25.30;100.00
27294;BME280;14785;52.556;13.430;2023-06-22T06:19:44;101224.53;;;25.80;100.00
27294;BME280;14785;52.556;13.430;2023-06-22T06:22:09;101229.03;;;25.47;100.00
27294;BME280;14785;52.556;13.430;2023-06-22T06:24:35;101223.66;;;25.63;100.00
27294;BME280;14785;52.556;13.430;2023-06-22T06:27:00;101226.97;;;25.65;100.00
27294;BME280;14785;52.556;13.430;2023-06-22T06:29:25;101222.84;;;25.51;100.00
27294;BME280;14785;52.556;13.430;2023-06-22T06:31:51;101215.06;;;25.71;100.00
27294;BME280;14785;52.556;13.430;2023-06-22T06:34:16;101221.44;;;25.49;100.00
27294;BME280;14785;52.556;13.430;2023-06-22T06:36:41;101230.09;;;25.11;100.00
27294;BME280;14785;52.556;13.430;2023-06-22T06:39:07;101233.41;;;25.13;100.00
27294;BME280;14785;52.556;13.430;2023-06-22T06:41:32;101232.59;;;25.36;100.00
27294;BME280;14785;52.556;13.430;2023-06-22T06:43:57;101226.97;;;25.54;100.00
27294;BME280;14785;52.556;13.430;2023-06-22T06:46:22;101235.63;;;25.51;100.00
27294;BME280;14785;52.556;13.430;2023-06-22T06:48:48;101242.97;;;25.62;100.00
27294;BME280;14785;52.556;13.430;2023-06-22T06:51:13;101237.53;;;26.01;100.00
27294;BME280;14785;52.556;13.430;2023-06-22T06:53:38;101233.91;;;25.73;100.00
27294;BME280;14785;52.556;13.430;2023-06-22T06:56:04;101220.34;;;25.89;100.00
27294;BME280;14785;52.556;13.430;2023-06-22T06:58:31;101215.63;;;25.85;100.00
27294;BME280;14785;52.556;13.430;2023-06-22T07:00:56;101224.63;;;25.57;100.00
27294;BME280;14785;52.556;13.430;2023-06-22T07:03:22;101215.38;;;25.86;100.00
27294;BME280;14785;52.556;13.430;2023-06-22T07:05:47;101212.59;;;26.09;100.00
27294;BME280;14785;52.556;13.430;2023-06-22T07:08:12;101225.47;;;26.42;100.00
27294;BME280;14785;52.556;13.430;2023-06-22T07:10:38;101218.94;;;26.27;100.00
27294;BME280;14785;52.556;13.430;2023-06-22T07:13:03;101209.53;;;26.51;100.00
27294;BME280;14785;52.556;13.430;2023-06-22T07:15:28;101209.03;;;26.54;100.00
27294;BME280;14785;52.556;13.430;2023-06-22T07:17:54;101213.56;;;26.98;100.00
27294;BME280;14785;52.556;13.430;2023-06-22T07:20:19;101212.78;;;27.19;100.00
27294;BME280;14785;52.556;13.430;2023-06-22T07:22:44;101205.03;;;26.94;100.00
27294;BME280;14785;52.556;13.430;2023-06-22T07:25:10;101207.00;;;27.32;100.00
27294;BME280;14785;52.556;13.430;2023-06-22T07:27:39;101195.50;;;27.30;100.00
27294;BME280;14785;52.556;13.430;2023-06-22T07:30:08;101187.63;;;27.17;100.00
27294;BME280;14785;52.556;13.430;2023-06-22T07:32:33;101195.28;;;27.15;100.00
27294;BME280;14785;52.556;13.430;2023-06-22T07:34:58;101196.56;;;27.29;100.00
27294;BME280;14785;52.556;13.430;2023-06-22T07:37:24;101184.19;;;27.64;100.00
27294;BME280;14785;52.556;13.430;2023-06-22T07:39:49;101185.41;;;27.52;100.00
27294;BME280;14785;52.556;13.430;2023-06-22T07:42:18;101190.03;;;27.51;100.00
27294;BME280;14785;52.556;13.430;2023-06-22T07:44:44;101184.78;;;27.45;100.00
27294;BME280;14785;52.556;13.430;2023-06-22T07:47:09;101185.28;;;27.42;100.00
27294;BME280;14785;52.556;13.430;2023-06-22T07:49:34;101183.88;;;28.09;100.00
27294;BME280;14785;52.556;13.430;2023-06-22T07:51:59;101183.91;;;28.14;100.00
27294;BME280;14785;52.556;13.430;2023-06-22T07:54:26;101186.09;;;28.12;100.00
27294;BME280;14785;52.556;13.430;2023-06-22T07:56:51;101184.88;;;28.93;100.00
27294;BME280;14785;52.556;13.430;2023-06-22T07:59:17;101183.97;;;28.19;100.00
27294;BME280;14785;52.556;13.430;2023-06-22T08:01:43;101183.03;;;28.67;100.00
27294;BME280;14785;52.556;13.430;2023-06-22T08:04:08;101181.75;;;28.16;100.00
27294;BME280;14785;52.556;13.430;2023-06-22T08:06:33;101178.59;;;28.29;100.00
27294;BME280;14785;52.556;13.430;2023-06-22T08:08:59;101174.34;;;28.43;100.00
27294;BME280;14785;52.556;13.430;2023-06-22T08:11:24;101172.88;;;28.99;100.00
27294;BME280;14785;52.556;13.430;2023-06-22T08:13:50;101184.22;;;29.17;100.00
27294;BME280;14785;52.556;13.430;2023-06-22T08:16:15;101180.09;;;28.78;100.00
27294;BME280;14785;52.556;13.430;2023-06-22T08:18:41;101179.28;;;28.78;100.00
27294;BME280;14785;52.556;13.430;2023-06-22T08:21:06;101177.06;;;29.06;100.00
27294;BME280;14785;52.556;13.430;2023-06-22T08:23:31;101183.22;;;29.33;100.00
27294;BME280;14785;52.556;13.430;2023-06-22T08:25:56;101182.53;;;29.11;100.00
27294;BME280;14785;52.556;13.430;2023-06-22T08:28:22;101190.88;;;29.31;100.00
27294;BME280;14785;52.556;13.430;2023-06-22T08:30:47;101194.59;;;29.10;100.00
27294;BME280;14785;52.556;13.430;2023-06-22T08:33:13;101189.66;;;29.64;100.00
27294;BME280;14785;52.556;13.430;2023-06-22T08:35:38;101191.41;;;29.28;100.00
27294;BME280;14785;52.556;13.430;2023-06-22T08:38:03;101186.03;;;29.48;100.00
27294;BME280;14785;52.556;13.430;2023-06-22T08:40:29;101191.38;;;29.18;100.00
27294;BME280;14785;52.556;13.430;2023-06-22T08:42:54;101179.47;;;28.35;100.00
27294;BME280;14785;52.556;13.430;2023-06-22T08:45:20;101174.22;;;28.28;100.00
27294;BME280;14785;52.556;13.430;2023-06-22T08:47:45;101180.38;;;28.45;100.00
27294;BME280;14785;52.556;13.430;2023-06-22T08:50:11;101179.28;;;28.78;100.00
27294;BME280;14785;52.556;13.430;2023-06-22T08:52:37;101173.56;;;28.84;100.00
27294;BME280;14785;52.556;13.430;2023-06-22T08:55:03;101180.38;;;29.13;100.00
27294;BME280;14785;52.556;13.430;2023-06-22T08:57:28;101184.91;;;29.44;100.00
27294;BME280;14785;52.556;13.430;2023-06-22T08:59:55;101187.75;;;29.13;100.00
27294;BME280;14785;52.556;13.430;2023-06-22T09:02:23;101184.28;;;29.27;100.00
27294;BME280;14785;52.556;13.430;2023-06-22T09:04:49;101184.06;;;30.36;100.00
27294;BME280;14785;52.556;13.430;2023-06-22T09:07:20;101184.09;;;30.61;100.00
27294;BME280;14785;52.556;13.430;2023-06-22T09:09:47;101171.91;;;29.87;100.00
27294;BME280;14785;52.556;13.430;2023-06-22T09:12:12;101179.53;;;29.65;100.00
27294;BME280;14785;52.556;13.430;2023-06-22T09:14:37;101177.41;;;29.87;100.00
27294;BME280;14785;52.556;13.430;2023-06-22T09:17:03;101172.78;;;30.12;100.00
27294;BME280;14785;52.556;13.430;2023-06-22T09:19:28;101181.63;;;30.29;100.00
27294;BME280;14785;52.556;13.430;2023-06-22T09:21:53;101177.50;;;30.67;100.00
27294;BME280;14785;52.556;13.430;2023-06-22T09:24:19;101181.84;;;31.08;100.00
27294;BME280;14785;52.556;13.430;2023-06-22T09:26:44;101187.88;;;31.10;100.00
27294;BME280;14785;52.556;13.430;2023-06-22T09:29:09;101179.97;;;30.38;100.00
27294;BME280;14785;52.556;13.430;2023-06-22T09:31:35;101172.00;;;30.57;100.00
27294;BME280;14785;52.556;13.430;2023-06-22T09:34:00;101170.88;;;30.63;100.00
27294;BME280;14785;52.556;13.430;2023-06-22T09:36:25;101163.75;;;30.32;100.00
27294;BME280;14785;52.556;13.430;2023-06-22T09:38:50;101165.63;;;30.16;100.00
27294;BME280;14785;52.556;13.430;2023-06-22T09:41:23;101154.78;;;29.59;100.00
27294;BME280;14785;52.556;13.430;2023-06-22T09:43:49;101152.78;;;29.30;99.03
27294;BME280;14785;52.556;13.430;2023-06-22T09:46:15;101157.75;;;28.96;100.00
27294;BME280;14785;52.556;13.430;2023-06-22T09:48:40;101151.53;;;29.63;100.00
27294;BME280;14785;52.556;13.430;2023-06-22T09:51:06;101151.59;;;29.88;100.00
27294;BME280;14785;52.556;13.430;2023-06-22T09:53:31;101147.22;;;29.77;100.00
27294;BME280;14785;52.556;13.430;2023-06-22T09:55:56;101151.63;;;30.03;100.00
27294;BME280;14785;52.556;13.430;2023-06-22T09:58:22;101157.19;;;30.28;97.72
27294;BME280;14785;52.556;13.430;2023-06-22T10:00:47;101158.56;;;30.35;99.31
27294;BME280;14785;52.556;13.430;2023-06-22T10:03:12;101168.69;;;30.65;92.84
27294;BME280;14785;52.556;13.430;2023-06-22T10:05:38;101168.69;;;30.85;87.10
27294;BME280;14785;52.556;13.430;2023-06-22T10:08:03;101168.09;;;31.08;85.42
27294;BME280;14785;52.556;13.430;2023-06-22T10:10:28;101162.59;;;30.03;96.95
27294;BME280;14785;52.556;13.430;2023-06-22T10:12:54;101164.88;;;30.26;95.75
27294;BME280;14785;52.556;13.430;2023-06-22T10:15:20;101171.13;;;31.06;88.50
27294;BME280;14785;52.556;13.430;2023-06-22T10:17:46;101167.06;;;30.79;90.83
27294;BME280;14785;52.556;13.430;2023-06-22T10:20:11;101163.22;;;30.75;96.95
27294;BME280;14785;52.556;13.430;2023-06-22T10:22:43;101163.09;;;31.25;100.00
27294;BME280;14785;52.556;13.430;2023-06-22T10:25:09;101161.00;;;30.57;95.98
27294;BME280;14785;52.556;13.430;2023-06-22T10:27:35;101160.09;;;31.16;98.59
27294;BME280;14785;52.556;13.430;2023-06-22T10:30:00;101156.59;;;30.91;94.21
27294;BME280;14785;52.556;13.430;2023-06-22T10:32:25;101145.78;;;31.24;96.69
27294;BME280;14785;52.556;13.430;2023-06-22T10:34:53;101149.38;;;31.20;92.61
27294;BME280;14785;52.556;13.430;2023-06-22T10:37:18;101144.69;;;31.30;95.13
27294;BME280;14785;52.556;13.430;2023-06-22T10:39:43;101139.53;;;31.68;93.58
27294;BME280;14785;52.556;13.430;2023-06-22T10:42:08;101136.00;;;31.62;90.09
27294;BME280;14785;52.556;13.430;2023-06-22T10:44:34;101137.69;;;31.53;87.84
27294;BME280;14785;52.556;13.430;2023-06-22T10:46:59;101136.41;;;31.89;90.37
27294;BME280;14785;52.556;13.430;2023-06-22T10:49:24;101136.31;;;32.04;86.27
27294;BME280;14785;52.556;13.430;2023-06-22T10:51:50;101137.41;;;32.70;88.12
27294;BME280;14785;52.556;13.430;2023-06-22T10:54:15;101122.75;;;32.46;84.74
27294;BME280;14785;52.556;13.430;2023-06-22T10:56:43;101122.94;;;33.73;78.09
27294;BME280;14785;52.556;13.430;2023-06-22T10:59:08;101123.91;;;33.82;75.66
27294;BME280;14785;52.556;13.430;2023-06-22T11:01:33;101115.25;;;32.80;78.15
27294;BME280;14785;52.556;13.430;2023-06-22T11:03:59;101117.94;;;32.28;81.42
27294;BME280;14785;52.556;13.430;2023-06-22T11:06:24;101111.97;;;31.34;89.25
27294;BME280;14785;52.556;13.430;2023-06-22T11:08:49;101110.81;;;31.89;87.15
27294;BME280;14785;52.556;13.430;2023-06-22T11:11:14;101105.69;;;32.44;84.69
27294;BME280;14785;52.556;13.430;2023-06-22T11:13:40;101106.13;;;32.56;83.61
27294;BME280;14785;52.556;13.430;2023-06-22T11:16:05;101113.00;;;31.92;84.67
27294;BME280;14785;52.556;13.430;2023-06-22T11:18:31;101103.34;;;32.61;80.96
27294;BME280;14785;52.556;13.430;2023-06-22T11:20:58;101108.06;;;33.50;83.21
27294;BME280;14785;52.556;13.430;2023-06-22T11:23:23;101114.50;;;34.65;81.66
27294;BME280;14785;52.556;13.430;2023-06-22T11:25:51;101097.88;;;33.88;72.16
27294;BME280;14785;52.556;13.430;2023-06-22T11:28:16;101103.19;;;33.84;76.65
27294;BME280;14785;52.556;13.430;2023-06-22T11:30:41;101097.72;;;34.48;75.15
27294;BME280;14785;52.556;13.430;2023-06-22T11:33:07;101081.91;;;34.03;75.71
27294;BME280;14785;52.556;13.430;2023-06-22T11:35:32;101091.63;;;34.92;70.88
27294;BME280;14785;52.556;13.430;2023-06-22T11:37:57;101099.13;;;34.92;71.73
27294;BME280;14785;52.556;13.430;2023-06-22T11:40:23;101091.69;;;34.28;74.50
27294;BME280;14785;52.556;13.430;2023-06-22T11:42:48;101092.25;;;34.11;77.05
27294;BME280;14785;52.556;13.430;2023-06-22T11:45:13;101101.22;;;34.81;75.12
27294;BME280;14785;52.556;13.430;2023-06-22T11:47:39;101098.72;;;34.39;68.87
27294;BME280;14785;52.556;13.430;2023-06-22T11:50:04;101099.53;;;34.99;69.44
27294;BME280;14785;52.556;13.430;2023-06-22T11:52:30;101100.28;;;34.58;79.16
27294;BME280;14785;52.556;13.430;2023-06-22T11:54:55;101096.69;;;34.58;75.39
27294;BME280;14785;52.556;13.430;2023-06-22T11:57:20;101101.97;;;35.41;77.23
27294;BME280;14785;52.556;13.430;2023-06-22T11:59:45;101096.25;;;35.86;77.75
27294;BME280;14785;52.556;13.430;2023-06-22T12:02:11;101105.91;;;35.97;66.80
27294;BME280;14785;52.556;13.430;2023-06-22T12:04:36;101101.97;;;35.76;67.21
27294;BME280;14785;52.556;13.430;2023-06-22T12:07:02;101096.31;;;35.32;61.62
27294;BME280;14785;52.556;13.430;2023-06-22T12:09:28;101103.28;;;35.03;68.42
27294;BME280;14785;52.556;13.430;2023-06-22T12:11:53;101100.75;;;34.93;64.72
27294;BME280;14785;52.556;13.430;2023-06-22T12:14:18;101086.31;;;35.09;68.88
27294;BME280;14785;52.556;13.430;2023-06-22T12:16:43;101078.19;;;35.75;70.80
27294;BME280;14785;52.556;13.430;2023-06-22T12:19:09;101074.72;;;36.97;59.50
27294;BME280;14785;52.556;13.430;2023-06-22T12:21:34;101083.03;;;37.53;64.14
27294;BME280;14785;52.556;13.430;2023-06-22T12:23:59;101081.44;;;38.12;51.72
27294;BME280;14785;52.556;13.430;2023-06-22T12:26:25;101075.50;;;36.59;53.14
27294;BME280;14785;52.556;13.430;2023-06-22T12:28:50;101060.75;;;37.19;61.60
27294;BME280;14785;52.556;13.430;2023-06-22T12:31:15;101059.31;;;36.21;61.74
27294;BME280;14785;52.556;13.430;2023-06-22T12:33:41;101046.69;;;36.60;66.46